sensor_id;sensor_type;location;lat;lon;timestamp;pressure;altitude;pressure_sealevel;temperature;humidity
68525;BME280;55524;51.380;13.372;2023-04-19T00:01:38;101481.44;;;8.09;98.36
68525;BME280;55524;51.380;13.372;2023-04-19T00:04:06;101483.22;;;8.05;98.55
68525;BME280;55524;51.380;13.372;2023-04-19T00:06:33;101474.47;;;8.05;98.04
68525;BME280;55524;51.380;13.372;2023-04-19T00:09:00;101476.28;;;7.95;97.30
68525;BME280;55524;51.380;13.372;2023-04-19T00:11:26;101473.75;;;7.89;97.70
68525;BME280;55524;51.380;13.372;2023-04-19T00:13:52;101472.88;;;7.85;97.08
68525;BME280;55524;51.380;13.372;2023-04-19T00:16:18;101481.72;;;7.78;97.74
68525;BME280;55524;51.380;13.372;2023-04-19T00:18:45;101479.19;;;7.69;98.59
68525;BME280;55524;51.380;13.372;2023-04-19T00:21:11;101471.25;;;7.71;98.89
68525;BME280;55524;51.380;13.372;2023-04-19T00:23:37;101473.91;;;7.72;98.79
68525;BME280;55524;51.380;13.372;2023-04-19T00:26:04;101466.09;;;7.60;99.50
68525;BME280;55524;51.380;13.372;2023-04-19T00:28:30;101472.19;;;7.63;99.61
68525;BME280;55524;51.380;13.372;2023-04-19T00:30:57;101466.97;;;7.62;99.33
68525;BME280;55524;51.380;13.372;2023-04-19T00:33:23;101471.34;;;7.61;99.25
68525;BME280;55524;51.380;13.372;2023-04-19T00:35:49;101469.56;;;7.65;98.96
68525;BME280;55524;51.380;13.372;2023-04-19T00:38:16;101480.16;;;7.56;99.95
68525;BME280;55524;51.380;13.372;2023-04-19T00:40:42;101473.16;;;7.55;99.98
68525;BME280;55524;51.380;13.372;2023-04-19T00:43:08;101480.19;;;7.51;99.57
68525;BME280;55524;51.380;13.372;2023-04-19T00:45:35;101474.94;;;7.51;99.28
68525;BME280;55524;51.380;13.372;2023-04-19T00:48:02;101469.72;;;7.44;100.00
68525;BME280;55524;51.380;13.372;2023-04-19T00:50:28;101471.56;;;7.37;100.00
68525;BME280;55524;51.380;13.372;2023-04-19T00:52:55;101463.59;;;7.43;100.00
68525;BME280;55524;51.380;13.372;2023-04-19T00:55:23;101465.44;;;7.33;100.00
68525;BME280;55524;51.380;13.372;2023-04-19T00:57:50;101458.41;;;7.35;100.00
68525;BME280;55524;51.380;13.372;2023-04-19T01:00:17;101462.81;;;7.33;100.00
68525;BME280;55524;51.380;13.372;2023-04-19T01:02:43;101455.03;;;7.21;100.00
68525;BME280;55524;51.380;13.372;2023-04-19T01:05:10;101448.91;;;7.21;100.00
68525;BME280;55524;51.380;13.372;2023-04-19T01:07:36;101458.53;;;7.22;100.00
68525;BME280;55524;51.380;13.372;2023-04-19T01:10:03;101461.16;;;7.22;100.00
68525;BME280;55524;51.380;13.372;2023-04-19T01:12:29;101458.53;;;7.19;100.00
68525;BME280;55524;51.380;13.372;2023-04-19T01:14:55;101453.25;;;7.22;100.00
68525;BME280;55524;51.380;13.372;2023-04-19T01:17:21;101448.03;;;7.15;100.00
68525;BME280;55524;51.380;13.372;2023-04-19T01:19:48;101455.97;;;7.09;100.00
68525;BME280;55524;51.380;13.372;2023-04-19T01:22:20;101453.28;;;7.15;100.00
68525;BME280;55524;51.380;13.372;2023-04-19T01:24:47;101452.47;;;7.09;100.00
68525;BME280;55524;51.380;13.372;2023-04-19T01:27:14;101449.00;;;7.01;100.00
68525;BME280;55524;51.380;13.372;2023-04-19T01:29:42;101453.41;;;7.02;100.00
68525;BME280;55524;51.380;13.372;2023-04-19T01:32:08;101450.78;;;6.99;100.00
68525;BME280;55524;51.380;13.372;2023-04-19T01:34:35;101450.78;;;6.99;100.00
68525;BME280;55524;51.380;13.372;2023-04-19T01:37:01;101455.19;;;6.92;100.00
68525;BME280;55524;51.380;13.372;2023-04-19T01:39:27;101446.47;;;6.90;100.00
68525;BME280;55524;51.380;13.372;2023-04-19T01:41:54;101451.75;;;6.85;100.00
68525;BME280;55524;51.380;13.372;2023-04-19T01:44:20;101445.59;;;6.86;100.00
68525;BME280;55524;51.380;13.372;2023-04-19T01:46:47;101444.75;;;6.77;100.00
68525;BME280;55524;51.380;13.372;2023-04-19T01:49:13;101450.03;;;6.77;100.00
68525;BME280;55524;51.380;13.372;2023-04-19T01:51:41;101437.78;;;6.73;100.00
68525;BME280;55524;51.380;13.372;2023-04-19T01:54:07;101442.16;;;6.72;100.00
68525;BME280;55524;51.380;13.372;2023-04-19T01:56:33;101441.31;;;6.72;100.00
68525;BME280;55524;51.380;13.372;2023-04-19T01:58:59;101437.78;;;6.76;100.00
68525;BME280;55524;51.380;13.372;2023-04-19T02:01:26;101435.16;;;6.74;100.00
68525;BME280;55524;51.380;13.372;2023-04-19T02:03:52;101433.44;;;6.73;100.00
68525;BME280;55524;51.380;13.372;2023-04-19T02:06:18;101436.03;;;6.75;100.00
68525;BME280;55524;51.380;13.372;2023-04-19T02:08:44;101434.31;;;6.64;100.00
68525;BME280;55524;51.380;13.372;2023-04-19T02:11:12;101435.25;;;6.62;100.00
68525;BME280;55524;51.380;13.372;2023-04-19T02:13:39;101425.59;;;6.64;100.00
68525;BME280;55524;51.380;13.372;2023-04-19T02:16:06;101427.41;;;6.51;100.00
68525;BME280;55524;51.380;13.372;2023-04-19T02:18:33;101434.38;;;6.58;100.00
68525;BME280;55524;51.380;13.372;2023-04-19T02:21:04;101423.84;;;6.63;100.00
68525;BME280;55524;51.380;13.372;2023-04-19T02:23:31;101423.88;;;6.55;100.00
68525;BME280;55524;51.380;13.372;2023-04-19T02:25:57;101434.41;;;6.49;100.00
68525;BME280;55524;51.380;13.372;2023-04-19T02:28:24;101432.69;;;6.47;100.00
68525;BME280;55524;51.380;13.372;2023-04-19T02:30:50;101429.16;;;6.49;100.00
68525;BME280;55524;51.380;13.372;2023-04-19T02:33:16;101432.66;;;6.45;100.00
68525;BME280;55524;51.380;13.372;2023-04-19T02:35:43;101430.94;;;6.43;100.00
68525;BME280;55524;51.380;13.372;2023-04-19T02:38:09;101429.19;;;6.43;100.00
68525;BME280;55524;51.380;13.372;2023-04-19T02:40:35;101427.47;;;6.42;100.00
68525;BME280;55524;51.380;13.372;2023-04-19T02:43:03;101431.84;;;6.42;100.00
68525;BME280;55524;51.380;13.372;2023-04-19T02:45:30;101427.44;;;6.40;100.00
68525;BME280;55524;51.380;13.372;2023-04-19T02:47:56;101423.94;;;6.37;100.00
68525;BME280;55524;51.380;13.372;2023-04-19T02:50:24;101423.94;;;6.40;100.00
68525;BME280;55524;51.380;13.372;2023-04-19T02:52:50;101424.88;;;6.31;100.00
68525;BME280;55524;51.380;13.372;2023-04-19T02:55:17;101419.63;;;6.25;100.00
68525;BME280;55524;51.380;13.372;2023-04-19T02:57:44;101425.75;;;6.30;100.00
68525;BME280;55524;51.380;13.372;2023-04-19T03:00:10;101415.22;;;6.29;100.00
68525;BME280;55524;51.380;13.372;2023-04-19T03:02:37;101415.25;;;6.24;100.00
68525;BME280;55524;51.380;13.372;2023-04-19T03:05:04;101407.41;;;6.26;100.00
68525;BME280;55524;51.380;13.372;2023-04-19T03:07:31;101401.28;;;6.19;100.00
68525;BME280;55524;51.380;13.372;2023-04-19T03:09:58;101398.66;;;6.21;100.00
68525;BME280;55524;51.380;13.372;2023-04-19T03:12:24;101403.91;;;6.24;100.00
68525;BME280;55524;51.380;13.372;2023-04-19T03:14:50;101395.16;;;6.23;100.00
68525;BME280;55524;51.380;13.372;2023-04-19T03:17:16;101390.78;;;6.24;100.00
68525;BME280;55524;51.380;13.372;2023-04-19T03:19:43;101389.94;;;6.19;100.00
68525;BME280;55524;51.380;13.372;2023-04-19T03:22:09;101391.69;;;6.18;100.00
68525;BME280;55524;51.380;13.372;2023-04-19T03:24:35;101387.31;;;6.15;100.00
68525;BME280;55524;51.380;13.372;2023-04-19T03:27:02;101384.66;;;6.22;99.63
68525;BME280;55524;51.380;13.372;2023-04-19T03:29:29;101377.69;;;6.14;99.63
68525;BME280;55524;51.380;13.372;2023-04-19T03:31:55;101371.59;;;6.14;98.07
68525;BME280;55524;51.380;13.372;2023-04-19T03:34:21;101369.81;;;6.11;97.42
68525;BME280;55524;51.380;13.372;2023-04-19T03:36:48;101373.31;;;6.09;97.58
68525;BME280;55524;51.380;13.372;2023-04-19T03:39:14;101373.34;;;6.04;96.37
68525;BME280;55524;51.380;13.372;2023-04-19T03:41:40;101375.09;;;6.05;96.05
68525;BME280;55524;51.380;13.372;2023-04-19T03:44:06;101377.72;;;6.04;94.84
68525;BME280;55524;51.380;13.372;2023-04-19T03:46:33;101369.84;;;6.05;94.97
68525;BME280;55524;51.380;13.372;2023-04-19T03:48:59;101376.88;;;5.97;95.71
68525;BME280;55524;51.380;13.372;2023-04-19T03:51:27;101372.50;;;5.98;93.91
68525;BME280;55524;51.380;13.372;2023-04-19T03:53:53;101368.16;;;5.92;93.63
68525;BME280;55524;51.380;13.372;2023-04-19T03:56:19;101369.88;;;5.90;93.69
68525;BME280;55524;51.380;13.372;2023-04-19T03:58:45;101370.75;;;5.87;93.32
68525;BME280;55524;51.380;13.372;2023-04-19T04:01:21;101376.00;;;5.95;92.90
68525;BME280;55524;51.380;13.372;2023-04-19T04:03:49;101370.75;;;5.84;92.03
68525;BME280;55524;51.380;13.372;2023-04-19T04:06:15;101369.91;;;5.81;91.09
68525;BME280;55524;51.380;13.372;2023-04-19T04:08:41;101375.13;;;5.84;90.73
68525;BME280;55524;51.380;13.372;2023-04-19T04:11:08;101368.13;;;5.86;89.92
68525;BME280;55524;51.380;13.372;2023-04-19T04:13:34;101369.88;;;5.85;89.16
68525;BME280;55524;51.380;13.372;2023-04-19T04:16:00;101384.78;;;5.79;89.68
68525;BME280;55524;51.380;13.372;2023-04-19T04:18:27;101369.91;;;5.78;88.89
68525;BME280;55524;51.380;13.372;2023-04-19T04:20:53;101366.44;;;5.74;87.95
68525;BME280;55524;51.380;13.372;2023-04-19T04:23:20;101361.16;;;5.73;87.25
68525;BME280;55524;51.380;13.372;2023-04-19T04:25:46;101362.94;;;5.67;86.48
68525;BME280;55524;51.380;13.372;2023-04-19T04:28:13;101370.81;;;5.63;86.89
68525;BME280;55524;51.380;13.372;2023-04-19T04:30:40;101350.72;;;5.60;84.46
68525;BME280;55524;51.380;13.372;2023-04-19T04:33:08;101368.19;;;5.60;86.13
68525;BME280;55524;51.380;13.372;2023-04-19T04:35:37;101344.63;;;5.51;83.90
68525;BME280;55524;51.380;13.372;2023-04-19T04:38:05;101346.38;;;5.49;82.94
68525;BME280;55524;51.380;13.372;2023-04-19T04:40:32;101337.66;;;5.47;81.23
68525;BME280;55524;51.380;13.372;2023-04-19T04:42:58;101344.66;;;5.40;82.47
68525;BME280;55524;51.380;13.372;2023-04-19T04:45:26;101341.16;;;5.36;81.82
68525;BME280;55524;51.380;13.372;2023-04-19T04:47:54;101349.91;;;5.35;82.59
68525;BME280;55524;51.380;13.372;2023-04-19T04:50:20;101343.78;;;5.35;81.08
68525;BME280;55524;51.380;13.372;2023-04-19T04:52:47;101342.91;;;5.33;80.70
68525;BME280;55524;51.380;13.372;2023-04-19T04:55:13;101336.78;;;5.34;80.22
68525;BME280;55524;51.380;13.372;2023-04-19T04:57:39;101344.66;;;5.32;81.10
68525;BME280;55524;51.380;13.372;2023-04-19T05:00:06;101333.31;;;5.29;79.62
68525;BME280;55524;51.380;13.372;2023-04-19T05:02:34;101341.16;;;5.29;79.92
68525;BME280;55524;51.380;13.372;2023-04-19T05:05:00;101339.41;;;5.26;79.53
68525;BME280;55524;51.380;13.372;2023-04-19T05:07:26;101336.81;;;5.28;79.65
68525;BME280;55524;51.380;13.372;2023-04-19T05:09:52;101338.53;;;5.26;79.33
68525;BME280;55524;51.380;13.372;2023-04-19T05:12:19;101328.94;;;5.28;79.34
68525;BME280;55524;51.380;13.372;2023-04-19T05:14:45;101336.81;;;5.25;79.23
68525;BME280;55524;51.380;13.372;2023-04-19T05:17:11;101327.19;;;5.25;78.55
68525;BME280;55524;51.380;13.372;2023-04-19T05:19:37;101321.09;;;5.28;77.32
68525;BME280;55524;51.380;13.372;2023-04-19T05:22:04;101321.97;;;5.21;76.70
68525;BME280;55524;51.380;13.372;2023-04-19T05:24:30;101331.56;;;5.28;77.20
68525;BME280;55524;51.380;13.372;2023-04-19T05:26:56;101312.34;;;5.27;75.50
68525;BME280;55524;51.380;13.372;2023-04-19T05:29:23;101324.59;;;5.19;76.86
68525;BME280;55524;51.380;13.372;2023-04-19T05:31:49;101301.00;;;5.24;74.68
68525;BME280;55524;51.380;13.372;2023-04-19T05:34:15;101302.75;;;5.23;75.29
68525;BME280;55524;51.380;13.372;2023-04-19T05:36:41;101316.69;;;5.22;76.55
68525;BME280;55524;51.380;13.372;2023-04-19T05:39:08;101308.84;;;5.24;76.12
68525;BME280;55524;51.380;13.372;2023-04-19T05:41:34;101304.47;;;5.29;76.03
68525;BME280;55524;51.380;13.372;2023-04-19T05:44:00;101307.09;;;5.24;75.46
68525;BME280;55524;51.380;13.372;2023-04-19T05:46:27;101304.50;;;5.27;76.52
68525;BME280;55524;51.380;13.372;2023-04-19T05:48:53;101293.13;;;5.31;74.97
68525;BME280;55524;51.380;13.372;2023-04-19T05:51:19;101300.09;;;5.40;76.06
68525;BME280;55524;51.380;13.372;2023-04-19T05:53:45;101288.72;;;5.33;74.99
68525;BME280;55524;51.380;13.372;2023-04-19T05:56:12;101284.41;;;5.31;74.09
68525;BME280;55524;51.380;13.372;2023-04-19T05:58:38;101301.81;;;5.41;75.22
68525;BME280;55524;51.380;13.372;2023-04-19T06:01:04;101298.34;;;5.43;75.87
68525;BME280;55524;51.380;13.372;2023-04-19T06:03:31;101278.25;;;5.38;74.09
68525;BME280;55524;51.380;13.372;2023-04-19T06:06:01;101286.09;;;5.41;74.09
68525;BME280;55524;51.380;13.372;2023-04-19T06:08:27;101285.22;;;5.42;74.66
68525;BME280;55524;51.380;13.372;2023-04-19T06:10:53;101292.22;;;5.45;75.29
68525;BME280;55524;51.380;13.372;2023-04-19T06:13:21;101295.69;;;5.48;75.53
68525;BME280;55524;51.380;13.372;2023-04-19T06:15:47;101293.06;;;5.48;75.64
68525;BME280;55524;51.380;13.372;2023-04-19T06:18:14;101296.59;;;5.38;75.04
68525;BME280;55524;51.380;13.372;2023-04-19T06:20:40;101317.56;;;5.39;77.10
68525;BME280;55524;51.380;13.372;2023-04-19T06:23:07;101313.22;;;5.32;76.65
68525;BME280;55524;51.380;13.372;2023-04-19T06:25:33;101317.56;;;5.42;76.47
68525;BME280;55524;51.380;13.372;2023-04-19T06:28:00;101320.13;;;5.53;77.65
68525;BME280;55524;51.380;13.372;2023-04-19T06:30:26;101333.22;;;5.65;78.93
68525;BME280;55524;51.380;13.372;2023-04-19T06:32:52;101326.22;;;5.69;77.74
68525;BME280;55524;51.380;13.372;2023-04-19T06:35:19;101327.09;;;5.71;77.00
68525;BME280;55524;51.380;13.372;2023-04-19T06:37:46;101300.03;;;5.61;76.30
68525;BME280;55524;51.380;13.372;2023-04-19T06:40:12;101305.25;;;5.69;76.92
68525;BME280;55524;51.380;13.372;2023-04-19T06:42:38;101303.47;;;5.76;76.06
68525;BME280;55524;51.380;13.372;2023-04-19T06:45:05;101297.38;;;5.78;75.43
68525;BME280;55524;51.380;13.372;2023-04-19T06:47:31;101299.06;;;5.84;75.17
68525;BME280;55524;51.380;13.372;2023-04-19T06:49:58;101279.84;;;5.82;74.21
68525;BME280;55524;51.380;13.372;2023-04-19T06:52:24;101276.31;;;5.97;74.75
68525;BME280;55524;51.380;13.372;2023-04-19T06:54:51;101280.69;;;5.90;74.92
68525;BME280;55524;51.380;13.372;2023-04-19T06:57:17;101291.16;;;6.04;76.35
68525;BME280;55524;51.380;13.372;2023-04-19T06:59:44;101299.81;;;6.23;76.45
68525;BME280;55524;51.380;13.372;2023-04-19T07:02:10;101266.50;;;6.29;74.11
68525;BME280;55524;51.380;13.372;2023-04-19T07:04:37;101262.09;;;6.36;74.13
68525;BME280;55524;51.380;13.372;2023-04-19T07:07:03;101275.06;;;6.57;75.02
68525;BME280;55524;51.380;13.372;2023-04-19T07:09:29;101251.25;;;6.79;73.57
68525;BME280;55524;51.380;13.372;2023-04-19T07:11:56;101229.31;;;6.83;71.13
68525;BME280;55524;51.380;13.372;2023-04-19T07:14:22;101242.47;;;6.83;72.34
68525;BME280;55524;51.380;13.372;2023-04-19T07:16:49;101230.94;;;6.98;71.21
68525;BME280;55524;51.380;13.372;2023-04-19T07:19:15;101223.84;;;7.06;71.04
68525;BME280;55524;51.380;13.372;2023-04-19T07:21:44;101238.59;;;7.21;72.95
68525;BME280;55524;51.380;13.372;2023-04-19T07:24:10;101234.22;;;7.17;71.83
68525;BME280;55524;51.380;13.372;2023-04-19T07:26:36;101222.13;;;7.05;71.56
68525;BME280;55524;51.380;13.372;2023-04-19T07:29:03;101217.69;;;7.10;71.88
68525;BME280;55524;51.380;13.372;2023-04-19T07:31:29;101222.59;;;7.41;71.44
68525;BME280;55524;51.380;13.372;2023-04-19T07:33:56;101203.25;;;7.46;71.13
68525;BME280;55524;51.380;13.372;2023-04-19T07:36:22;101194.19;;;7.69;69.71
68525;BME280;55524;51.380;13.372;2023-04-19T07:38:48;101192.75;;;8.06;68.86
68525;BME280;55524;51.380;13.372;2023-04-19T07:41:14;101183.09;;;8.07;68.03
68525;BME280;55524;51.380;13.372;2023-04-19T07:43:41;101157.72;;;8.03;66.89
68525;BME280;55524;51.380;13.372;2023-04-19T07:46:11;101166.00;;;8.37;66.63
68525;BME280;55524;51.380;13.372;2023-04-19T07:48:38;101163.72;;;8.12;66.04
68525;BME280;55524;51.380;13.372;2023-04-19T07:51:13;101157.56;;;8.13;65.81
68525;BME280;55524;51.380;13.372;2023-04-19T07:53:43;101158.56;;;8.59;66.98
68525;BME280;55524;51.380;13.372;2023-04-19T07:56:11;101161.81;;;8.76;67.23
68525;BME280;55524;51.380;13.372;2023-04-19T07:58:38;101148.72;;;8.72;65.75
68525;BME280;55524;51.380;13.372;2023-04-19T08:01:04;101142.53;;;8.73;65.25
68525;BME280;55524;51.380;13.372;2023-04-19T08:03:34;101141.81;;;9.09;65.80
68525;BME280;55524;51.380;13.372;2023-04-19T08:06:03;101137.16;;;9.24;65.32
68525;BME280;55524;51.380;13.372;2023-04-19T08:08:30;101115.56;;;9.47;62.69
68525;BME280;55524;51.380;13.372;2023-04-19T08:10:57;101109.34;;;9.49;61.43
68525;BME280;55524;51.380;13.372;2023-04-19T08:13:23;101130.31;;;9.14;64.07
68525;BME280;55524;51.380;13.372;2023-04-19T08:15:49;101135.03;;;8.98;65.01
68525;BME280;55524;51.380;13.372;2023-04-19T08:18:16;101120.91;;;9.00;63.28
68525;BME280;55524;51.380;13.372;2023-04-19T08:20:42;101117.13;;;9.15;63.51
68525;BME280;55524;51.380;13.372;2023-04-19T08:23:08;101118.44;;;8.93;63.37
68525;BME280;55524;51.380;13.372;2023-04-19T08:25:36;101126.81;;;9.53;64.04
68525;BME280;55524;51.380;13.372;2023-04-19T08:28:03;101109.91;;;9.23;62.85
68525;BME280;55524;51.380;13.372;2023-04-19T08:30:29;101102.97;;;9.19;61.06
68525;BME280;55524;51.380;13.372;2023-04-19T08:32:55;101101.56;;;9.43;62.53
68525;BME280;55524;51.380;13.372;2023-04-19T08:35:22;101087.47;;;9.83;61.52
68525;BME280;55524;51.380;13.372;2023-04-19T08:37:50;101064.22;;;9.97;58.92
68525;BME280;55524;51.380;13.372;2023-04-19T08:40:16;101083.84;;;9.85;60.61
68525;BME280;55524;51.380;13.372;2023-04-19T08:42:43;101069.97;;;10.13;60.18
68525;BME280;55524;51.380;13.372;2023-04-19T08:45:10;101046.69;;;10.30;56.54
68525;BME280;55524;51.380;13.372;2023-04-19T08:47:39;101049.72;;;10.48;57.88
68525;BME280;55524;51.380;13.372;2023-04-19T08:50:07;101046.75;;;10.91;57.93
68525;BME280;55524;51.380;13.372;2023-04-19T08:52:35;101059.72;;;10.69;58.64
68525;BME280;55524;51.380;13.372;2023-04-19T08:55:06;101059.31;;;10.52;58.79
68525;BME280;55524;51.380;13.372;2023-04-19T08:57:33;101063.16;;;10.40;59.40
68525;BME280;55524;51.380;13.372;2023-04-19T09:00:03;101044.94;;;10.93;57.85
68525;BME280;55524;51.380;13.372;2023-04-19T09:02:50;101052.81;;;10.64;58.55
68525;BME280;55524;51.380;13.372;2023-04-19T09:05:17;101053.75;;;10.92;58.69
68525;BME280;55524;51.380;13.372;2023-04-19T09:07:44;101038.31;;;11.08;57.00
68525;BME280;55524;51.380;13.372;2023-04-19T09:10:19;101014.72;;;11.02;55.68
68525;BME280;55524;51.380;13.372;2023-04-19T09:13:02;101032.97;;;11.39;57.71
68525;BME280;55524;51.380;13.372;2023-04-19T09:15:39;101004.44;;;11.75;55.38
68525;BME280;55524;51.380;13.372;2023-04-19T09:18:10;100969.16;;;11.75;52.10
68525;BME280;55524;51.380;13.372;2023-04-19T09:20:41;100983.16;;;12.05;53.17
68525;BME280;55524;51.380;13.372;2023-04-19T09:23:11;100972.03;;;12.20;52.68
68525;BME280;55524;51.380;13.372;2023-04-19T09:25:38;100984.22;;;11.99;53.98
68525;BME280;55524;51.380;13.372;2023-04-19T09:28:12;100947.91;;;12.03;51.50
68525;BME280;55524;51.380;13.372;2023-04-19T09:30:39;100958.59;;;11.48;52.65
68525;BME280;55524;51.380;13.372;2023-04-19T09:33:06;100980.19;;;11.89;55.19
68525;BME280;55524;51.380;13.372;2023-04-19T09:35:45;100966.41;;;11.78;53.55
68525;BME280;55524;51.380;13.372;2023-04-19T09:38:13;100942.53;;;11.53;51.84
68525;BME280;55524;51.380;13.372;2023-04-19T09:40:40;100962.88;;;11.51;53.79
68525;BME280;55524;51.380;13.372;2023-04-19T09:43:07;100971.66;;;11.53;53.31
68525;BME280;55524;51.380;13.372;2023-04-19T09:45:40;100980.41;;;11.28;54.73
68525;BME280;55524;51.380;13.372;2023-04-19T09:48:07;100985.00;;;11.22;55.09
68525;BME280;55524;51.380;13.372;2023-04-19T09:50:35;100969.03;;;11.25;54.19
68525;BME280;55524;51.380;13.372;2023-04-19T09:53:02;100973.81;;;11.12;54.83
68525;BME280;55524;51.380;13.372;2023-04-19T09:55:29;100962.38;;;11.40;54.89
68525;BME280;55524;51.380;13.372;2023-04-19T09:57:55;100969.72;;;11.58;54.27
68525;BME280;55524;51.380;13.372;2023-04-19T10:00:22;100958.94;;;11.64;54.12
68525;BME280;55524;51.380;13.372;2023-04-19T10:02:51;100961.47;;;11.41;54.06
68525;BME280;55524;51.380;13.372;2023-04-19T10:05:23;100976.19;;;11.76;56.10
68525;BME280;55524;51.380;13.372;2023-04-19T10:07:51;100933.75;;;12.04;52.12
68525;BME280;55524;51.380;13.372;2023-04-19T10:10:18;100942.19;;;11.90;53.38
68525;BME280;55524;51.380;13.372;2023-04-19T10:12:48;100941.13;;;11.68;53.18
68525;BME280;55524;51.380;13.372;2023-04-19T10:15:16;100938.63;;;11.38;53.47
68525;BME280;55524;51.380;13.372;2023-04-19T10:17:45;100963.94;;;11.19;56.41
68525;BME280;55524;51.380;13.372;2023-04-19T10:20:29;100948.06;;;10.91;54.79
68525;BME280;55524;51.380;13.372;2023-04-19T10:22:57;100952.38;;;10.93;55.31
68525;BME280;55524;51.380;13.372;2023-04-19T10:25:29;100943.38;;;10.99;54.94
68525;BME280;55524;51.380;13.372;2023-04-19T10:27:56;100945.75;;;11.08;54.47
68525;BME280;55524;51.380;13.372;2023-04-19T10:30:23;100951.59;;;11.46;54.94
68525;BME280;55524;51.380;13.372;2023-04-19T10:32:57;100929.84;;;11.36;53.66
68525;BME280;55524;51.380;13.372;2023-04-19T10:35:43;100937.31;;;10.95;54.81
68525;BME280;55524;51.380;13.372;2023-04-19T10:38:11;100965.88;;;10.84;55.84
68525;BME280;55524;51.380;13.372;2023-04-19T10:43:18;100958.84;;;11.13;56.72
68525;BME280;55524;51.380;13.372;2023-04-19T10:45:45;100948.06;;;11.19;55.77
68525;BME280;55524;51.380;13.372;2023-04-19T10:51:11;100945.63;;;11.39;56.08
68525;BME280;55524;51.380;13.372;2023-04-19T10:53:51;100933.19;;;11.68;54.45
68525;BME280;55524;51.380;13.372;2023-04-19T11:01:42;100920.44;;;11.54;53.00
68525;BME280;55524;51.380;13.372;2023-04-19T11:09:24;100941.50;;;11.30;55.56
68525;BME280;55524;51.380;13.372;2023-04-19T11:11:52;100929.16;;;11.57;55.56
68525;BME280;55524;51.380;13.372;2023-04-19T11:14:22;100898.13;;;12.13;52.70
68525;BME280;55524;51.380;13.372;2023-04-19T11:16:49;100883.88;;;12.15;52.45
68525;BME280;55524;51.380;13.372;2023-04-19T11:19:18;100873.34;;;12.37;51.48
68525;BME280;55524;51.380;13.372;2023-04-19T11:21:46;100870.81;;;12.11;52.80
68525;BME280;55524;51.380;13.372;2023-04-19T11:24:12;100878.84;;;11.84;53.44
68525;BME280;55524;51.380;13.372;2023-04-19T11:26:42;100885.94;;;11.57;54.21
68525;BME280;55524;51.380;13.372;2023-04-19T11:29:09;100896.28;;;11.38;55.21
68525;BME280;55524;51.380;13.372;2023-04-19T11:31:36;100900.00;;;11.32;55.29
68525;BME280;55524;51.380;13.372;2023-04-19T11:34:02;100899.56;;;11.18;55.88
68525;BME280;55524;51.380;13.372;2023-04-19T11:36:30;100910.94;;;10.94;56.59
68525;BME280;55524;51.380;13.372;2023-04-19T11:38:57;100915.25;;;10.96;56.02
68525;BME280;55524;51.380;13.372;2023-04-19T11:41:24;100901.13;;;10.97;55.72
68525;BME280;55524;51.380;13.372;2023-04-19T11:43:50;100904.19;;;11.12;55.90
68525;BME280;55524;51.380;13.372;2023-04-19T11:46:16;100907.03;;;11.05;56.55
68525;BME280;55524;51.380;13.372;2023-04-19T11:48:53;100899.00;;;11.08;56.06
68525;BME280;55524;51.380;13.372;2023-04-19T11:51:19;100898.63;;;11.21;55.36
68525;BME280;55524;51.380;13.372;2023-04-19T11:53:46;100896.00;;;11.19;54.84
68525;BME280;55524;51.380;13.372;2023-04-19T11:56:12;100897.28;;;11.34;55.00
68525;BME280;55524;51.380;13.372;2023-04-19T11:58:45;100881.50;;;11.31;54.90
68525;BME280;55524;51.380;13.372;2023-04-19T12:01:21;100893.31;;;11.21;55.52
68525;BME280;55524;51.380;13.372;2023-04-19T12:03:54;100875.44;;;11.27;53.26
68525;BME280;55524;51.380;13.372;2023-04-19T12:06:29;100868.53;;;11.50;53.09
68525;BME280;55524;51.380;13.372;2023-04-19T12:08:58;100840.31;;;11.74;51.65
68525;BME280;55524;51.380;13.372;2023-04-19T12:11:27;100867.34;;;11.58;53.89
68525;BME280;55524;51.380;13.372;2023-04-19T12:14:14;100866.69;;;11.52;53.61
68525;BME280;55524;51.380;13.372;2023-04-19T12:16:41;100865.84;;;11.76;54.18
68525;BME280;55524;51.380;13.372;2023-04-19T12:19:17;100874.25;;;11.89;54.01
68525;BME280;55524;51.380;13.372;2023-04-19T12:21:46;100858.84;;;12.00;53.28
68525;BME280;55524;51.380;13.372;2023-04-19T12:24:14;100875.31;;;11.84;54.83
68525;BME280;55524;51.380;13.372;2023-04-19T12:26:54;100885.06;;;11.56;56.38
68525;BME280;55524;51.380;13.372;2023-04-19T12:29:25;100893.69;;;11.08;57.79
68525;BME280;55524;51.380;13.372;2023-04-19T12:31:52;100893.28;;;10.94;59.00
68525;BME280;55524;51.380;13.372;2023-04-19T12:34:18;100908.38;;;11.45;58.75
68525;BME280;55524;51.380;13.372;2023-04-19T12:36:44;100883.38;;;11.79;56.44
68525;BME280;55524;51.380;13.372;2023-04-19T12:39:10;100859.03;;;11.44;55.13
68525;BME280;55524;51.380;13.372;2023-04-19T12:41:37;100855.47;;;11.45;55.42
68525;BME280;55524;51.380;13.372;2023-04-19T12:44:03;100855.38;;;12.22;56.30
68525;BME280;55524;51.380;13.372;2023-04-19T12:46:30;100843.34;;;13.02;54.64
68525;BME280;55524;51.380;13.372;2023-04-19T12:48:56;100826.72;;;13.41;53.24
68525;BME280;55524;51.380;13.372;2023-04-19T12:51:22;100806.13;;;13.26;51.15
68525;BME280;55524;51.380;13.372;2023-04-19T12:53:49;100791.97;;;13.47;50.26
68525;BME280;55524;51.380;13.372;2023-04-19T12:56:16;100756.97;;;13.77;47.48
68525;BME280;55524;51.380;13.372;2023-04-19T12:58:42;100781.16;;;12.67;49.29
68525;BME280;55524;51.380;13.372;2023-04-19T13:01:09;100804.75;;;12.06;53.72
68525;BME280;55524;51.380;13.372;2023-04-19T13:03:35;100813.56;;;11.81;53.39